DAUU

Ain el Beida Airport

Ouargla, Algeria
TAF DAUU 192300Z 2000/2009 32008KT CAVOK
Issued Valid From Valid To
Sep-19 @ 23:00 UTC
(2 hours ago)
Sep-20 @ 00:00 UTC
(an hour ago)
Sep-20 @ 09:00 UTC
(in 8 hours)
Sep-20 @ 00:00 to Sep-20 @ 09:00
TAF DAUU 192300Z 2000/2009 32008KT CAVOK
Wind Visibility Clouds Conditions
320° at 8 knots 10,000+ meters
  • No significant clouds
TAF DAUU 192300Z 2000/2009 32008KT CAVOK
Issued Sep-19 @ 23:00 UTC
(2 hours ago)
Valid From Sep-20 @ 00:00 UTC
(an hour ago)
Valid To Sep-20 @ 09:00 UTC
(in 8 hours)
Sep-20 @ 00:00 - Sep-20 @ 09:00
Wind Visibility
320° at 8 knots 10,000+ meters
Clouds
  • No significant clouds
Conditions